createdAt,value
2023-09-21T00:00:26.145Z,0.6
2023-09-21T00:01:35.893Z,0.7
2023-09-21T00:02:44.581Z,0.8
2023-09-21T00:03:54.387Z,0.7
2023-09-21T00:05:03.906Z,1
2023-09-21T00:06:13.634Z,0.7
2023-09-21T00:07:23.250Z,0.5
2023-09-21T00:08:31.923Z,0.8
2023-09-21T00:09:41.656Z,0.8
2023-09-21T00:10:49.374Z,0.8
2023-09-21T00:11:59.049Z,0.7
2023-09-21T00:13:08.689Z,0.7
2023-09-21T00:14:17.449Z,0.9
2023-09-21T00:15:27.138Z,0.6
2023-09-21T00:16:36.889Z,0.7
2023-09-21T00:17:44.686Z,1
2023-09-21T00:18:55.324Z,0.8
2023-09-21T00:20:02.885Z,0.9
2023-09-21T00:21:11.578Z,0.8
2023-09-21T00:22:21.285Z,0.7
2023-09-21T00:23:30.928Z,0.8
2023-09-21T00:24:40.616Z,0.6
2023-09-21T00:25:49.305Z,0.9
2023-09-21T00:26:58.062Z,0.8
2023-09-21T00:28:07.673Z,0.7
2023-09-21T00:29:15.390Z,0.8
2023-09-21T00:30:25.102Z,0.9
2023-09-21T00:31:34.794Z,0.7
2023-09-21T00:32:44.504Z,0.7
2023-09-21T00:33:54.123Z,0.7
2023-09-21T00:35:02.849Z,0.6
2023-09-21T00:36:10.931Z,0.7
2023-09-21T00:37:20.369Z,0.6
2023-09-21T00:38:29.058Z,0.5
2023-09-21T00:39:37.766Z,0.6
2023-09-21T00:40:47.497Z,0.8
2023-09-21T00:41:55.219Z,0.5
2023-09-21T00:43:04.912Z,0.6
2023-09-21T00:44:12.599Z,0.7
2023-09-21T00:45:22.355Z,0.7
2023-09-21T00:46:31.152Z,0.8
2023-09-21T00:47:38.773Z,1
2023-09-21T00:48:48.559Z,0.7
2023-09-21T00:50:00.641Z,0.8
2023-09-21T00:51:09.306Z,0.8
2023-09-21T00:52:19.031Z,0.9
2023-09-21T00:53:26.692Z,1.1
2023-09-21T00:54:36.374Z,0.9
2023-09-21T00:55:46.074Z,0.7
2023-09-21T00:56:53.883Z,1.2
2023-09-21T00:58:03.532Z,0.9
2023-09-21T00:59:11.231Z,1
2023-09-21T01:00:20.882Z,0.7
2023-09-21T01:01:30.650Z,1.1
2023-09-21T01:02:38.433Z,0.6
2023-09-21T01:03:48.124Z,0.7
2023-09-21T01:04:57.711Z,0.8
2023-09-21T01:06:05.458Z,0.9
2023-09-21T01:07:15.131Z,0.9
2023-09-21T01:08:23.812Z,0.9
2023-09-21T01:09:33.564Z,0.7
2023-09-21T01:10:43.236Z,0.8
2023-09-21T01:11:51.964Z,0.8
2023-09-21T01:13:01.589Z,1
2023-09-21T01:14:10.323Z,0.8
2023-09-21T01:15:19.069Z,1
2023-09-21T01:16:28.741Z,1.2
2023-09-21T01:17:37.462Z,1.1
2023-09-21T01:18:46.324Z,1.2
2023-09-21T01:19:55.885Z,1.1
2023-09-21T01:21:05.918Z,1.5
2023-09-21T01:22:15.342Z,1.4
2023-09-21T01:23:23.996Z,1.6
2023-09-21T01:24:32.662Z,1.5
2023-09-21T01:25:42.472Z,1.5
2023-09-21T01:26:49.192Z,1.5
2023-09-21T01:27:57.829Z,1.5
2023-09-21T01:29:07.513Z,1.4
2023-09-21T01:30:16.181Z,1.5
2023-09-21T01:31:25.977Z,1.2
2023-09-21T01:32:34.699Z,0.8
2023-09-21T01:33:42.326Z,1.2
2023-09-21T01:34:52.024Z,1.1
2023-09-21T01:36:00.043Z,0.9
2023-09-21T01:37:09.760Z,0.9
2023-09-21T01:38:19.407Z,1
2023-09-21T01:39:29.139Z,1.1
2023-09-21T01:40:38.786Z,1.2
2023-09-21T01:41:47.541Z,1
2023-09-21T01:42:57.206Z,1.2
2023-09-21T01:44:06.887Z,1
2023-09-21T01:45:15.694Z,0.7
2023-09-21T01:46:24.249Z,1
2023-09-21T01:47:33.986Z,1.3
2023-09-21T01:48:42.932Z,0.7
2023-09-21T01:49:52.327Z,0.7
2023-09-21T01:51:01.075Z,0.7
2023-09-21T01:52:09.682Z,0.9
2023-09-21T01:53:19.343Z,0.8
2023-09-21T01:54:27.026Z,0.6
2023-09-21T01:55:36.705Z,0.9
2023-09-21T01:56:46.388Z,0.9
2023-09-21T01:57:54.031Z,1.1
2023-09-21T01:59:03.721Z,1
2023-09-21T02:00:13.490Z,0.6
2023-09-21T02:01:21.171Z,1
2023-09-21T02:02:31.923Z,0.6
2023-09-21T02:03:40.667Z,0.7
2023-09-21T02:04:50.227Z,0.7
2023-09-21T02:05:59.946Z,0.8
2023-09-21T02:07:07.618Z,0.6
2023-09-21T02:08:17.380Z,0.6
2023-09-21T02:09:26.978Z,0.6
2023-09-21T02:10:34.635Z,0.6
2023-09-21T02:11:44.348Z,0.7
2023-09-21T02:12:51.991Z,0.6
2023-09-21T02:14:01.730Z,0.3
2023-09-21T02:15:11.528Z,0.6
2023-09-21T02:16:21.108Z,0.5
2023-09-21T02:17:30.792Z,0.3
2023-09-21T02:18:39.475Z,0.5
2023-09-21T02:19:48.271Z,0.5
2023-09-21T02:20:57.925Z,0.5
2023-09-21T02:22:05.602Z,0.7
2023-09-21T02:23:14.309Z,0.4
2023-09-21T02:24:24.006Z,0.4
2023-09-21T02:25:33.724Z,0.4
2023-09-21T02:26:43.420Z,0.3
2023-09-21T02:27:52.066Z,0.4
2023-09-21T02:28:59.749Z,0.6
2023-09-21T02:30:09.435Z,0.5
2023-09-21T02:31:18.089Z,0.6
2023-09-21T02:32:27.737Z,0.5
2023-09-21T02:33:37.464Z,0.5
2023-09-21T02:34:45.198Z,0.6
2023-09-21T02:35:54.932Z,0.4
2023-09-21T02:37:03.549Z,0.4
2023-09-21T02:38:11.216Z,0.3
2023-09-21T02:39:20.897Z,0.5
2023-09-21T02:40:28.543Z,0.5
2023-09-21T02:41:38.289Z,0.4
2023-09-21T02:42:45.917Z,0.4
2023-09-21T02:43:54.576Z,0.4
2023-09-21T02:45:04.343Z,0.3
2023-09-21T02:46:12.029Z,0.5
2023-09-21T02:47:21.676Z,0.6
2023-09-21T02:48:30.392Z,0.4
2023-09-21T02:49:39.989Z,0.4
2023-09-21T02:50:50.045Z,0.6
2023-09-21T02:51:58.407Z,0.4
2023-09-21T02:53:08.174Z,0.5
2023-09-21T02:54:17.772Z,0.5
2023-09-21T02:55:25.407Z,0.5
2023-09-21T02:56:35.104Z,0.7
2023-09-21T02:57:44.777Z,0.5
2023-09-21T02:58:52.440Z,0.5
2023-09-21T03:00:02.167Z,0.4
2023-09-21T03:01:10.839Z,0.5
2023-09-21T03:02:19.536Z,0.4
2023-09-21T03:03:29.374Z,0.5
2023-09-21T03:04:36.876Z,0.7
2023-09-21T03:05:46.565Z,0.4
2023-09-21T03:06:55.227Z,0.4
2023-09-21T03:08:02.939Z,0.4
2023-09-21T03:09:12.637Z,0.3
2023-09-21T03:10:21.290Z,0.5
2023-09-21T03:11:29.992Z,0.4
2023-09-21T03:12:39.666Z,0.6
2023-09-21T03:13:49.394Z,0.5
2023-09-21T03:14:59.098Z,0.6
2023-09-21T03:16:08.793Z,0.5
2023-09-21T03:17:16.438Z,0.5
2023-09-21T03:18:26.110Z,0.7
2023-09-21T03:19:33.748Z,0.5
2023-09-21T03:20:42.446Z,0.6
2023-09-21T03:21:52.102Z,0.6
2023-09-21T03:22:59.790Z,0.9
2023-09-21T03:24:09.481Z,0.7
2023-09-21T03:25:19.100Z,0.9
2023-09-21T03:26:27.771Z,1
2023-09-21T03:27:37.445Z,0.7
2023-09-21T03:28:45.268Z,0.7
2023-09-21T03:29:54.878Z,0.8
2023-09-21T03:31:04.588Z,0.8
2023-09-21T03:32:12.223Z,1
2023-09-21T03:33:22.070Z,0.9
2023-09-21T03:34:29.605Z,0.7
2023-09-21T03:35:38.269Z,0.9
2023-09-21T03:36:47.988Z,0.5
2023-09-21T03:37:56.655Z,0.5
2023-09-21T03:39:06.438Z,0.6
2023-09-21T03:40:16.129Z,0.6
2023-09-21T03:41:23.764Z,0.5
2023-09-21T03:42:33.507Z,0.7
2023-09-21T03:43:43.199Z,0.7
2023-09-21T03:44:50.895Z,0.5
2023-09-21T03:46:00.619Z,0.5
2023-09-21T03:47:08.282Z,0.8
2023-09-21T03:48:17.005Z,0.8
2023-09-21T03:49:26.686Z,0.7
2023-09-21T03:50:35.375Z,0.7
2023-09-21T03:51:45.041Z,0.5
2023-09-21T03:52:53.755Z,0.6
2023-09-21T03:54:04.477Z,0.7
2023-09-21T03:55:14.106Z,0.6
2023-09-21T03:56:22.951Z,0.5
2023-09-21T03:57:31.608Z,0.5
2023-09-21T03:58:41.385Z,0.5
2023-09-21T03:59:49.009Z,0.5
2023-09-21T04:00:57.696Z,0.5
2023-09-21T04:02:08.569Z,0.6
2023-09-21T04:03:17.994Z,0.6
2023-09-21T04:04:27.575Z,0.5
2023-09-21T04:05:35.232Z,0.6
2023-09-21T04:06:43.889Z,0.5
2023-09-21T04:07:53.582Z,0.4
2023-09-21T04:09:02.347Z,0.4
2023-09-21T04:10:11.972Z,0.5
2023-09-21T04:11:20.617Z,0.3
2023-09-21T04:12:28.346Z,0.3
2023-09-21T04:13:38.060Z,0.4
2023-09-21T04:14:45.818Z,0.4
2023-09-21T04:15:55.400Z,0.5
2023-09-21T04:17:05.086Z,0.4
2023-09-21T04:18:14.770Z,0.8
2023-09-21T04:19:24.440Z,0.5
2023-09-21T04:20:33.127Z,0.6
2023-09-21T04:21:40.801Z,0.5
2023-09-21T04:22:50.464Z,0.5
2023-09-21T04:24:00.264Z,0.7
2023-09-21T04:25:09.889Z,0.5
2023-09-21T04:26:20.478Z,0.4
2023-09-21T04:27:30.198Z,0.5
2023-09-21T04:28:39.928Z,0.4
2023-09-21T04:29:47.670Z,0.6
2023-09-21T04:30:56.293Z,0.4
2023-09-21T04:32:06.032Z,0.6
2023-09-21T04:33:14.801Z,0.4
2023-09-21T04:34:24.398Z,0.7
2023-09-21T04:35:34.174Z,0.3
2023-09-21T04:36:42.801Z,0.6
2023-09-21T04:37:52.887Z,0.5
2023-09-21T04:39:01.200Z,0.5
2023-09-21T04:40:10.899Z,0.6
2023-09-21T04:41:20.567Z,0.6
2023-09-21T04:42:28.247Z,0.8
2023-09-21T04:43:38.018Z,0.7
2023-09-21T04:44:46.752Z,0.5
2023-09-21T04:45:55.411Z,0.6
2023-09-21T04:47:05.074Z,0.8
2023-09-21T04:48:13.802Z,0.8
2023-09-21T04:49:23.521Z,0.6
2023-09-21T04:50:33.195Z,0.6
2023-09-21T04:51:40.878Z,0.4
2023-09-21T04:52:50.866Z,0.5
2023-09-21T04:54:00.272Z,0.5
2023-09-21T04:55:08.924Z,0.9
2023-09-21T04:56:18.745Z,0.6
2023-09-21T04:57:26.346Z,0.6
2023-09-21T04:58:36.000Z,0.6
2023-09-21T04:59:44.670Z,0.5
2023-09-21T05:00:53.399Z,0.6
2023-09-21T05:02:03.030Z,0.6
2023-09-21T05:03:10.801Z,0.5
2023-09-21T05:04:20.551Z,0.7
2023-09-21T05:05:30.063Z,0.6
2023-09-21T05:06:39.792Z,0.6
2023-09-21T05:07:49.517Z,0.5
2023-09-21T05:08:58.220Z,0.7
2023-09-21T05:10:06.882Z,0.7
2023-09-21T05:11:16.537Z,0.4
2023-09-21T05:12:24.312Z,0.3
2023-09-21T05:13:34.868Z,0.7
2023-09-21T05:14:44.718Z,0.4
2023-09-21T05:15:52.344Z,0.4
2023-09-21T05:17:02.077Z,0.5
2023-09-21T05:18:10.820Z,0.5
2023-09-21T05:19:19.485Z,0.5
2023-09-21T05:20:29.215Z,0.4
2023-09-21T05:21:36.863Z,0.5
2023-09-21T05:22:46.575Z,0.5
2023-09-21T05:23:56.365Z,0.7
2023-09-21T05:25:04.048Z,0.7
2023-09-21T05:26:13.760Z,0.8
2023-09-21T05:27:22.517Z,0.8
2023-09-21T05:28:30.163Z,0.7
2023-09-21T05:29:39.852Z,0.9
2023-09-21T05:30:48.587Z,0.8
2023-09-21T05:31:59.292Z,0.7
2023-09-21T05:33:09.054Z,0.9
2023-09-21T05:34:17.721Z,0.9
2023-09-21T05:35:27.322Z,0.9
2023-09-21T05:36:37.097Z,0.9
2023-09-21T05:37:44.778Z,0.7
2023-09-21T05:38:54.459Z,0.6
2023-09-21T05:40:02.135Z,0.4
2023-09-21T05:41:10.797Z,0.5
2023-09-21T05:42:20.553Z,0.5
2023-09-21T05:43:30.174Z,0.4
2023-09-21T05:44:39.842Z,0.5
2023-09-21T05:45:49.630Z,0.7
2023-09-21T05:46:59.270Z,0.6
2023-09-21T05:48:09.047Z,0.5
2023-09-21T05:49:17.685Z,0.6
2023-09-21T05:50:26.319Z,0.9
2023-09-21T05:51:36.084Z,0.6
2023-09-21T05:52:44.727Z,0.9
2023-09-21T05:53:54.475Z,0.8
2023-09-21T05:55:04.107Z,0.8
2023-09-21T05:56:11.763Z,0.6
2023-09-21T05:57:21.470Z,0.6
2023-09-21T05:58:29.160Z,0.7
2023-09-21T05:59:38.033Z,0.7
2023-09-21T06:00:47.734Z,0.6
2023-09-21T06:01:56.427Z,0.6
2023-09-21T06:03:06.181Z,0.5
2023-09-21T06:04:14.989Z,0.7
2023-09-21T06:05:23.586Z,0.7
2023-09-21T06:06:32.256Z,0.6
2023-09-21T06:07:41.030Z,0.7
2023-09-21T06:08:49.801Z,0.8
2023-09-21T06:09:59.422Z,0.4
2023-09-21T06:11:09.123Z,0.7
2023-09-21T06:12:18.914Z,0.6
2023-09-21T06:13:28.859Z,0.7
2023-09-21T06:14:36.258Z,0.7
2023-09-21T06:15:46.021Z,0.6
2023-09-21T06:16:53.699Z,0.6
2023-09-21T06:18:03.408Z,0.7
2023-09-21T06:19:13.720Z,0.7
2023-09-21T06:20:21.739Z,0.6
2023-09-21T06:21:31.484Z,0.8
2023-09-21T06:22:41.166Z,0.9
2023-09-21T06:23:48.850Z,0.4
2023-09-21T06:24:58.560Z,0.7
2023-09-21T06:26:06.251Z,0.9
2023-09-21T06:27:15.965Z,1
2023-09-21T06:28:25.656Z,0.6
2023-09-21T06:29:34.342Z,1.1
2023-09-21T06:30:44.058Z,0.7
2023-09-21T06:32:05.619Z,0.6
2023-09-21T06:33:02.435Z,0.6
2023-09-21T06:34:12.072Z,0.7
2023-09-21T06:35:19.729Z,0.7
2023-09-21T06:36:28.499Z,0.6
2023-09-21T06:37:36.249Z,0.7
2023-09-21T06:38:45.107Z,0.6
2023-09-21T06:39:54.643Z,0.6
2023-09-21T06:41:03.407Z,0.6
2023-09-21T06:42:13.102Z,0.9
2023-09-21T06:43:22.851Z,0.8
2023-09-21T06:44:31.572Z,0.8
2023-09-21T06:45:40.271Z,0.7
2023-09-21T06:46:48.110Z,0.6
2023-09-21T06:47:57.111Z,0.5
2023-09-21T06:49:11.254Z,0.4
2023-09-21T06:50:16.635Z,0.5
2023-09-21T06:51:26.316Z,0.5
2023-09-21T06:52:35.010Z,0.5
2023-09-21T06:53:42.678Z,0.3
2023-09-21T06:54:52.379Z,0.6
2023-09-21T06:56:02.085Z,0.3
2023-09-21T06:57:11.761Z,0.7
2023-09-21T06:58:21.451Z,0.1
2023-09-21T06:59:31.222Z,0.3
2023-09-21T07:00:40.929Z,0.5
2023-09-21T07:01:50.651Z,0.5
2023-09-21T07:02:58.505Z,0.3
2023-09-21T07:04:08.179Z,0.1
2023-09-21T07:05:17.767Z,0.2
2023-09-21T07:06:26.507Z,0.2
2023-09-21T07:07:36.125Z,0.2
2023-09-21T07:08:45.102Z,0.1
2023-09-21T07:09:54.748Z,0
2023-09-21T07:11:03.211Z,0.3
2023-09-21T07:12:11.947Z,0.1
2023-09-21T07:13:21.802Z,0.2
2023-09-21T07:14:30.306Z,0.3
2023-09-21T07:15:39.996Z,0.3
2023-09-21T07:16:49.704Z,0.1
2023-09-21T07:17:58.483Z,0.3
2023-09-21T07:19:08.092Z,0.4
2023-09-21T07:20:17.787Z,0.3
2023-09-21T07:21:26.493Z,0.1
2023-09-21T07:22:35.236Z,0.1
2023-09-21T07:23:44.830Z,0.1
2023-09-21T07:24:53.544Z,0.3
2023-09-21T07:26:03.321Z,0.2
2023-09-21T07:27:12.017Z,0.6
2023-09-21T07:28:20.695Z,0.2
2023-09-21T07:29:30.386Z,0.2
2023-09-21T07:30:38.077Z,0.4
2023-09-21T07:31:47.782Z,0.2
2023-09-21T07:32:56.660Z,0.2
2023-09-21T07:34:06.192Z,0.2
2023-09-21T07:35:14.843Z,0.1
2023-09-21T07:36:24.601Z,0.2
2023-09-21T07:37:34.343Z,0.2
2023-09-21T07:38:43.214Z,0.2
2023-09-21T07:39:50.685Z,0.3
2023-09-21T07:41:00.393Z,0.1
2023-09-21T07:42:08.153Z,0.2
2023-09-21T07:43:16.765Z,0.2
2023-09-21T07:44:26.447Z,0.2
2023-09-21T07:45:34.151Z,0.1
2023-09-21T07:46:43.854Z,0.8
2023-09-21T07:47:53.621Z,0.2
2023-09-21T07:49:01.281Z,0.2
2023-09-21T07:50:10.891Z,0.4
2023-09-21T07:51:18.600Z,0.2
2023-09-21T07:52:27.301Z,0.1
2023-09-21T07:53:37.046Z,0.3
2023-09-21T07:54:45.719Z,0.3
2023-09-21T07:55:54.426Z,0.1
2023-09-21T07:57:04.273Z,0.2
2023-09-21T07:58:12.908Z,0.1
2023-09-21T07:59:21.573Z,0.5
2023-09-21T08:00:29.287Z,0.1
2023-09-21T08:01:37.938Z,0.1
2023-09-21T08:02:47.726Z,0.2
2023-09-21T08:03:57.483Z,0.2
2023-09-21T08:05:07.299Z,0.2
2023-09-21T08:06:15.781Z,0.5
2023-09-21T08:07:23.478Z,0.6
2023-09-21T08:08:33.193Z,0.3
2023-09-21T08:09:42.967Z,0.3
2023-09-21T08:10:52.615Z,0.1
2023-09-21T08:12:02.462Z,0.3
2023-09-21T08:13:12.015Z,0.2
2023-09-21T08:14:20.736Z,0.2
2023-09-21T08:15:29.559Z,0.2
2023-09-21T08:16:37.188Z,0.2
2023-09-21T08:17:46.858Z,0.3
2023-09-21T08:18:54.663Z,0.2
2023-09-21T08:20:04.319Z,0.3
2023-09-21T08:21:13.990Z,0.2
2023-09-21T08:22:23.682Z,0.3
2023-09-21T08:23:33.443Z,0.2
2023-09-21T08:24:42.180Z,0.4
2023-09-21T08:25:51.907Z,0.2
2023-09-21T08:27:01.646Z,0.8
2023-09-21T08:28:09.293Z,0.4
2023-09-21T08:29:18.019Z,0.3
2023-09-21T08:30:27.797Z,0.6
2023-09-21T08:31:36.458Z,0.4
2023-09-21T08:32:46.171Z,0.3
2023-09-21T08:33:54.870Z,0.6
2023-09-21T08:35:04.555Z,0.4
2023-09-21T08:36:14.315Z,0.2
2023-09-21T08:37:24.018Z,0.1
2023-09-21T08:38:33.712Z,0.2
2023-09-21T08:39:42.772Z,0.2
2023-09-21T08:40:51.080Z,0.2
2023-09-21T08:42:00.811Z,0.1
2023-09-21T08:43:08.502Z,0.1
2023-09-21T08:44:18.173Z,0.3
2023-09-21T08:45:26.967Z,0.2
2023-09-21T08:46:36.126Z,0.2
2023-09-21T08:47:45.904Z,0.2
2023-09-21T08:48:55.617Z,0.1
2023-09-21T08:50:04.338Z,0.1
2023-09-21T08:51:14.046Z,0.2
2023-09-21T08:52:23.629Z,0
2023-09-21T08:53:33.364Z,0.1
2023-09-21T08:54:42.092Z,0.1
2023-09-21T08:55:50.781Z,0.2
2023-09-21T08:57:00.529Z,0.1
2023-09-21T08:58:09.224Z,0.1
2023-09-21T08:59:18.958Z,0.1
2023-09-21T09:00:29.133Z,0.1
2023-09-21T09:01:37.984Z,0.2
2023-09-21T09:02:47.593Z,0.1
2023-09-21T09:03:56.337Z,0.1
2023-09-21T09:05:04.004Z,0
2023-09-21T09:06:13.756Z,0.1
2023-09-21T09:07:22.434Z,0
2023-09-21T09:08:32.126Z,0.5
2023-09-21T09:09:41.997Z,0.1
2023-09-21T09:10:51.592Z,0.2
2023-09-21T09:12:01.315Z,0.2
2023-09-21T09:13:10.022Z,0
2023-09-21T09:14:18.734Z,0
2023-09-21T09:15:28.438Z,0.1
2023-09-21T09:16:37.209Z,0.1
2023-09-21T09:17:45.903Z,0.1
2023-09-21T09:18:55.643Z,0
2023-09-21T09:20:04.244Z,0
2023-09-21T09:21:13.936Z,0.1
2023-09-21T09:22:23.650Z,0.1
2023-09-21T09:23:33.404Z,0.1
2023-09-21T09:24:43.083Z,0.1
2023-09-21T09:25:51.797Z,0.1
2023-09-21T09:27:04.104Z,0.1
2023-09-21T09:28:11.203Z,0.1
2023-09-21T09:29:18.920Z,0.1
2023-09-21T09:30:28.638Z,0.1
2023-09-21T09:31:37.362Z,0
2023-09-21T09:32:45.028Z,0
2023-09-21T09:33:54.831Z,0
2023-09-21T09:35:02.513Z,0.2
2023-09-21T09:36:11.214Z,0.1
2023-09-21T09:37:20.863Z,0
2023-09-21T09:38:29.555Z,0
2023-09-21T09:39:39.261Z,0
2023-09-21T09:40:49.065Z,0.1
2023-09-21T09:41:57.767Z,0.1
2023-09-21T09:43:07.496Z,0
2023-09-21T09:44:17.114Z,0
2023-09-21T09:45:25.990Z,0.1
2023-09-21T09:46:35.579Z,0
2023-09-21T09:47:44.280Z,0
2023-09-21T09:48:53.964Z,0
2023-09-21T09:50:02.644Z,0.1
2023-09-21T09:51:11.334Z,0
2023-09-21T09:52:21.050Z,0.1
2023-09-21T09:53:29.756Z,0.1
2023-09-21T09:54:39.487Z,0.1
2023-09-21T09:55:49.193Z,0.1
2023-09-21T09:56:58.917Z,0
2023-09-21T09:58:08.550Z,0.1
2023-09-21T09:59:17.224Z,0
2023-09-21T10:00:26.985Z,0
2023-09-21T10:01:36.771Z,0
2023-09-21T10:02:44.529Z,0.3
2023-09-21T10:03:54.541Z,0
2023-09-21T10:05:03.201Z,0.1
2023-09-21T10:06:11.971Z,0
2023-09-21T10:07:20.592Z,0.1
2023-09-21T10:08:29.263Z,0
2023-09-21T10:09:38.100Z,0
2023-09-21T10:10:47.799Z,0
2023-09-21T10:11:55.591Z,0.1
2023-09-21T10:13:05.194Z,0.1
2023-09-21T10:14:14.873Z,0.1
2023-09-21T10:15:25.615Z,0.1
2023-09-21T10:16:35.295Z,0.1
2023-09-21T10:17:44.043Z,0.1
2023-09-21T10:18:52.745Z,0
2023-09-21T10:20:02.467Z,0
2023-09-21T10:21:11.155Z,0
2023-09-21T10:22:20.062Z,0.1
2023-09-21T10:23:29.613Z,0.1
2023-09-21T10:24:37.290Z,0
2023-09-21T10:25:45.970Z,0
2023-09-21T10:26:54.705Z,0.1
2023-09-21T10:28:04.412Z,0.1
2023-09-21T10:29:14.096Z,0.1
2023-09-21T10:30:23.780Z,0
2023-09-21T10:31:32.564Z,0.1
2023-09-21T10:32:42.260Z,0.1
2023-09-21T10:33:51.901Z,0
2023-09-21T10:35:01.598Z,0.1
2023-09-21T10:36:09.358Z,0.2
2023-09-21T10:37:19.021Z,0.1
2023-09-21T10:38:27.804Z,0.1
2023-09-21T10:39:36.653Z,0.1
2023-09-21T10:40:46.406Z,0.3
2023-09-21T10:41:54.100Z,0.1
2023-09-21T10:43:02.773Z,0.1
2023-09-21T10:44:12.453Z,0
2023-09-21T10:45:22.235Z,0.2
2023-09-21T10:46:32.055Z,0.1
2023-09-21T10:47:40.620Z,0
2023-09-21T10:48:48.284Z,0.1
2023-09-21T10:49:57.973Z,0
2023-09-21T10:51:05.781Z,0
2023-09-21T10:52:15.441Z,0.1
2023-09-21T10:53:25.152Z,0.1
2023-09-21T10:54:34.011Z,0
2023-09-21T10:55:43.616Z,0
2023-09-21T10:56:52.634Z,0
2023-09-21T10:58:02.260Z,0
2023-09-21T10:59:10.987Z,0
2023-09-21T11:00:20.815Z,0
2023-09-21T11:01:30.459Z,0
2023-09-21T11:02:40.164Z,0
2023-09-21T11:03:47.804Z,0.1
2023-09-21T11:04:57.533Z,0
2023-09-21T11:06:06.280Z,0
2023-09-21T11:07:14.979Z,0
2023-09-21T11:08:23.661Z,0
2023-09-21T11:09:32.424Z,0
2023-09-21T11:10:40.073Z,0.1
2023-09-21T11:11:49.741Z,0
2023-09-21T11:12:57.440Z,0.1
2023-09-21T11:14:06.161Z,0
2023-09-21T11:15:15.954Z,0.1
2023-09-21T11:16:24.613Z,0
2023-09-21T11:17:34.278Z,0
2023-09-21T11:18:43.188Z,0
2023-09-21T11:19:50.782Z,0
2023-09-21T11:21:00.601Z,0.1
2023-09-21T11:22:08.343Z,0
2023-09-21T11:23:17.951Z,0
2023-09-21T11:24:26.713Z,0
2023-09-21T11:25:35.403Z,0
2023-09-21T11:26:45.206Z,0
2023-09-21T11:27:53.854Z,0.1
2023-09-21T11:29:02.613Z,0
2023-09-21T11:30:12.375Z,0.1
2023-09-21T11:31:21.045Z,0.1
2023-09-21T11:32:30.716Z,0
2023-09-21T11:33:40.489Z,0
2023-09-21T11:34:49.407Z,0
2023-09-21T11:35:59.149Z,0
2023-09-21T11:37:06.811Z,0
2023-09-21T11:38:14.498Z,0.2
2023-09-21T11:39:24.530Z,0.1
2023-09-21T11:40:34.207Z,0
2023-09-21T11:41:43.881Z,0.1
2023-09-21T11:42:52.841Z,0
2023-09-21T11:44:02.393Z,0
2023-09-21T11:45:12.177Z,0
2023-09-21T11:46:20.818Z,0.1
2023-09-21T11:47:29.574Z,0.2
2023-09-21T11:48:38.354Z,0
2023-09-21T11:49:48.918Z,0.1
2023-09-21T11:50:58.735Z,0
2023-09-21T11:52:07.414Z,0
2023-09-21T11:53:15.101Z,0
2023-09-21T11:54:25.124Z,0.1
2023-09-21T11:55:32.807Z,0
2023-09-21T11:56:42.505Z,0
2023-09-21T11:57:51.182Z,0
2023-09-21T11:58:58.987Z,0
2023-09-21T12:00:08.583Z,0
2023-09-21T12:01:17.334Z,0
2023-09-21T12:02:27.247Z,0.2
2023-09-21T12:03:37.109Z,0
2023-09-21T12:04:44.883Z,0.1
2023-09-21T12:05:54.611Z,0
2023-09-21T12:07:04.435Z,0.1
2023-09-21T12:08:13.242Z,0
2023-09-21T12:09:23.009Z,0
2023-09-21T12:10:31.745Z,0
2023-09-21T12:11:40.876Z,0
2023-09-21T12:12:50.208Z,0
2023-09-21T12:13:59.032Z,0
2023-09-21T12:15:08.882Z,0
2023-09-21T12:16:18.417Z,0.1
2023-09-21T12:17:28.212Z,0
2023-09-21T12:18:37.920Z,0.1
2023-09-21T12:19:48.545Z,0.1
2023-09-21T12:20:57.272Z,0
2023-09-21T12:22:06.905Z,0
2023-09-21T12:23:15.628Z,0
2023-09-21T12:24:24.640Z,0
2023-09-21T12:25:34.325Z,0.3
2023-09-21T12:26:43.129Z,0
2023-09-21T12:27:52.780Z,0
2023-09-21T12:29:00.460Z,0
2023-09-21T12:30:09.216Z,0
2023-09-21T12:31:18.994Z,0.1
2023-09-21T12:32:27.644Z,0
2023-09-21T12:33:43.424Z,0
2023-09-21T12:34:47.096Z,0
2023-09-21T12:35:55.810Z,0
2023-09-21T12:37:05.568Z,0.1
2023-09-21T12:38:13.218Z,0
2023-09-21T12:39:23.640Z,0
2023-09-21T12:40:33.406Z,0.1
2023-09-21T12:41:42.083Z,0
2023-09-21T12:42:51.802Z,0
2023-09-21T12:44:00.516Z,0
2023-09-21T12:45:10.263Z,0.1
2023-09-21T12:46:18.973Z,0
2023-09-21T12:47:27.812Z,0
2023-09-21T12:48:37.386Z,0.2
2023-09-21T12:49:46.036Z,0
2023-09-21T12:50:54.803Z,0
2023-09-21T12:52:04.453Z,0
2023-09-21T12:53:14.267Z,0.1
2023-09-21T12:54:22.963Z,0
2023-09-21T12:55:32.656Z,0
2023-09-21T12:56:40.371Z,0
2023-09-21T12:57:49.574Z,0
2023-09-21T12:58:59.315Z,0
2023-09-21T13:00:09.009Z,0
2023-09-21T13:01:19.784Z,0.1
2023-09-21T13:02:28.537Z,0
2023-09-21T13:03:37.443Z,0.3
2023-09-21T13:04:47.144Z,0
2023-09-21T13:05:54.606Z,0
2023-09-21T13:07:04.371Z,0
2023-09-21T13:08:13.031Z,0
2023-09-21T13:09:21.709Z,0
2023-09-21T13:10:30.491Z,0
2023-09-21T13:11:39.187Z,0
2023-09-21T13:12:47.866Z,0
2023-09-21T13:13:57.701Z,0
2023-09-21T13:15:05.406Z,0
2023-09-21T13:16:15.102Z,0
2023-09-21T13:17:23.752Z,0
2023-09-21T13:18:33.534Z,0.1
2023-09-21T13:19:43.277Z,0
2023-09-21T13:20:51.868Z,0
2023-09-21T13:22:00.592Z,0
2023-09-21T13:23:10.307Z,0
2023-09-21T13:24:19.995Z,0
2023-09-21T13:25:29.709Z,0
2023-09-21T13:26:39.444Z,0
2023-09-21T13:27:47.128Z,0
2023-09-21T13:28:56.833Z,0
2023-09-21T13:30:05.573Z,0
2023-09-21T13:31:15.235Z,0
2023-09-21T13:32:25.028Z,0
2023-09-21T13:33:32.925Z,0
2023-09-21T13:34:41.501Z,0.1
2023-09-21T13:35:50.308Z,0
2023-09-21T13:36:58.881Z,0
2023-09-21T13:38:08.652Z,0
2023-09-21T13:39:17.399Z,0
2023-09-21T13:40:26.054Z,0.1
2023-09-21T13:41:36.301Z,0
2023-09-21T13:42:46.073Z,0.1
2023-09-21T13:43:55.704Z,0
2023-09-21T13:45:04.440Z,0
2023-09-21T13:46:12.124Z,0
2023-09-21T13:47:22.135Z,0
2023-09-21T13:48:29.693Z,0
2023-09-21T13:49:38.309Z,0
2023-09-21T13:50:47.987Z,0
2023-09-21T13:51:56.786Z,0
2023-09-21T13:53:06.415Z,0.1
2023-09-21T13:54:16.255Z,0
2023-09-21T13:55:26.015Z,0.1
2023-09-21T13:56:35.583Z,0.1
2023-09-21T13:57:45.331Z,0
2023-09-21T13:58:54.960Z,0
2023-09-21T14:00:04.691Z,0
2023-09-21T14:01:12.453Z,0
2023-09-21T14:02:22.102Z,0
2023-09-21T14:03:32.154Z,0
2023-09-21T14:04:40.888Z,0
2023-09-21T14:05:50.533Z,0
2023-09-21T14:06:59.376Z,0
2023-09-21T14:08:08.938Z,0
2023-09-21T14:09:18.675Z,0
2023-09-21T14:10:27.301Z,0
2023-09-21T14:11:36.980Z,0
2023-09-21T14:12:45.762Z,0
2023-09-21T14:13:55.489Z,0
2023-09-21T14:15:05.218Z,0
2023-09-21T14:16:12.909Z,0.1
2023-09-21T14:17:21.601Z,0.2
2023-09-21T14:18:31.361Z,0
2023-09-21T14:19:40.015Z,0
2023-09-21T14:20:49.715Z,0
2023-09-21T14:21:58.494Z,0.2
2023-09-21T14:23:07.314Z,0
2023-09-21T14:24:16.966Z,0
2023-09-21T14:25:25.638Z,0
2023-09-21T14:26:35.328Z,0.1
2023-09-21T14:27:45.062Z,0
2023-09-21T14:28:52.746Z,0.1
2023-09-21T14:30:02.503Z,0
2023-09-21T14:31:12.274Z,0
2023-09-21T14:32:21.870Z,0
2023-09-21T14:33:30.598Z,0
2023-09-21T14:34:39.241Z,0
2023-09-21T14:35:48.964Z,0
2023-09-21T14:36:57.689Z,0
2023-09-21T14:38:06.407Z,0
2023-09-21T14:39:16.275Z,0
2023-09-21T14:40:24.868Z,0.1
2023-09-21T14:41:34.536Z,0
2023-09-21T14:42:44.263Z,0.1
2023-09-21T14:43:51.941Z,0
2023-09-21T14:45:04.347Z,0.2
2023-09-21T14:46:12.380Z,0
2023-09-21T14:47:22.059Z,0.2
2023-09-21T14:48:31.845Z,0.4
2023-09-21T14:49:39.517Z,0.1
2023-09-21T14:50:49.191Z,0
2023-09-21T14:51:56.849Z,0
2023-09-21T14:53:06.583Z,0
2023-09-21T14:54:16.293Z,0.1
2023-09-21T14:55:24.162Z,0
2023-09-21T14:56:33.693Z,0
2023-09-21T14:57:43.388Z,0.1
2023-09-21T14:58:51.105Z,0
2023-09-21T15:00:00.792Z,0
2023-09-21T15:01:09.472Z,0
2023-09-21T15:02:18.101Z,0
2023-09-21T15:03:28.255Z,0.1
2023-09-21T15:04:35.879Z,0
2023-09-21T15:05:44.517Z,0
2023-09-21T15:06:54.175Z,0.1
2023-09-21T15:08:12.551Z,0
2023-09-21T15:09:14.620Z,0
2023-09-21T15:10:23.257Z,0.1
2023-09-21T15:11:32.076Z,0.1
2023-09-21T15:12:41.628Z,0.1
2023-09-21T15:13:50.323Z,0
2023-09-21T15:14:59.064Z,0.1
2023-09-21T15:16:08.810Z,0.1
2023-09-21T15:17:17.479Z,0
2023-09-21T15:18:27.279Z,0.1
2023-09-21T15:19:35.973Z,0
2023-09-21T15:20:45.684Z,0
2023-09-21T15:21:55.380Z,0
2023-09-21T15:23:04.084Z,0
2023-09-21T15:24:12.825Z,0
2023-09-21T15:25:22.513Z,0
2023-09-21T15:26:31.270Z,0
2023-09-21T15:27:41.099Z,0
2023-09-21T15:28:50.604Z,0
2023-09-21T15:29:59.273Z,0
2023-09-21T15:31:09.002Z,0
2023-09-21T15:32:17.656Z,0.1
2023-09-21T15:33:33.237Z,0
2023-09-21T15:34:37.121Z,0.1
2023-09-21T15:35:44.728Z,0
2023-09-21T15:36:54.424Z,0
2023-09-21T15:38:03.136Z,0
2023-09-21T15:39:12.827Z,0
2023-09-21T15:40:22.525Z,0.1
2023-09-21T15:41:31.183Z,0
2023-09-21T15:42:40.023Z,0
2023-09-21T15:43:49.803Z,0
2023-09-21T15:44:58.338Z,0
2023-09-21T15:46:08.044Z,0
2023-09-21T15:47:17.706Z,0
2023-09-21T15:48:25.435Z,0.1
2023-09-21T15:49:35.151Z,0.1
2023-09-21T15:50:44.806Z,0.1
2023-09-21T15:51:54.472Z,0
2023-09-21T15:53:04.183Z,0
2023-09-21T15:54:11.950Z,0
2023-09-21T15:55:21.650Z,0
2023-09-21T15:56:30.340Z,0
2023-09-21T15:57:38.103Z,0
2023-09-21T15:58:47.797Z,0
2023-09-21T15:59:56.632Z,0
2023-09-21T16:01:06.282Z,0
2023-09-21T16:02:15.988Z,0.1
2023-09-21T16:03:23.798Z,0
2023-09-21T16:04:33.560Z,0.1
2023-09-21T16:05:42.167Z,0
2023-09-21T16:06:51.870Z,0.1
2023-09-21T16:08:01.655Z,0
2023-09-21T16:09:09.391Z,0
2023-09-21T16:10:19.108Z,0
2023-09-21T16:11:28.885Z,0.2
2023-09-21T16:12:36.609Z,0